sensor_id;sensor_type;location;lat;lon;timestamp;P1;durP1;ratioP1;P2;durP2;ratioP2
70667;SDS011;58242;51.250;-1.118;2024-03-02T00:00:10;3.92;;;3.83;;
70667;SDS011;58242;51.250;-1.118;2024-03-02T00:02:40;3.30;;;3.10;;
70667;SDS011;58242;51.250;-1.118;2024-03-02T00:05:06;3.53;;;3.42;;
70667;SDS011;58242;51.250;-1.118;2024-03-02T00:07:32;3.40;;;3.30;;
70667;SDS011;58242;51.250;-1.118;2024-03-02T00:09:57;4.00;;;3.70;;
70667;SDS011;58242;51.250;-1.118;2024-03-02T00:12:23;3.60;;;3.50;;
70667;SDS011;58242;51.250;-1.118;2024-03-02T00:14:48;3.80;;;3.53;;
70667;SDS011;58242;51.250;-1.118;2024-03-02T00:17:17;3.45;;;3.35;;
70667;SDS011;58242;51.250;-1.118;2024-03-02T00:19:49;4.07;;;3.88;;
70667;SDS011;58242;51.250;-1.118;2024-03-02T00:22:15;3.50;;;3.40;;
70667;SDS011;58242;51.250;-1.118;2024-03-02T00:24:40;3.80;;;3.60;;
70667;SDS011;58242;51.250;-1.118;2024-03-02T00:27:05;4.15;;;3.95;;
70667;SDS011;58242;51.250;-1.118;2024-03-02T00:29:32;3.78;;;3.67;;
70667;SDS011;58242;51.250;-1.118;2024-03-02T00:31:57;3.60;;;3.50;;
70667;SDS011;58242;51.250;-1.118;2024-03-02T00:34:23;3.80;;;3.70;;
70667;SDS011;58242;51.250;-1.118;2024-03-02T00:36:49;4.40;;;4.20;;
70667;SDS011;58242;51.250;-1.118;2024-03-02T00:39:14;4.10;;;3.90;;
70667;SDS011;58242;51.250;-1.118;2024-03-02T00:41:42;7.03;;;4.20;;
70667;SDS011;58242;51.250;-1.118;2024-03-02T00:44:07;3.67;;;3.58;;
70667;SDS011;58242;51.250;-1.118;2024-03-02T00:46:37;4.25;;;4.05;;
70667;SDS011;58242;51.250;-1.118;2024-03-02T00:49:22;4.35;;;4.15;;
70667;SDS011;58242;51.250;-1.118;2024-03-02T00:51:49;4.50;;;4.18;;
70667;SDS011;58242;51.250;-1.118;2024-03-02T00:54:18;4.03;;;3.92;;
70667;SDS011;58242;51.250;-1.118;2024-03-02T00:56:46;4.13;;;3.92;;
70667;SDS011;58242;51.250;-1.118;2024-03-02T00:59:12;4.47;;;4.22;;
70667;SDS011;58242;51.250;-1.118;2024-03-02T01:01:37;4.07;;;3.70;;
70667;SDS011;58242;51.250;-1.118;2024-03-02T01:04:03;3.63;;;3.53;;
70667;SDS011;58242;51.250;-1.118;2024-03-02T01:06:29;3.92;;;3.67;;
70667;SDS011;58242;51.250;-1.118;2024-03-02T01:08:55;3.92;;;3.72;;
70667;SDS011;58242;51.250;-1.118;2024-03-02T01:11:20;3.80;;;3.60;;
70667;SDS011;58242;51.250;-1.118;2024-03-02T01:13:48;3.90;;;3.80;;
70667;SDS011;58242;51.250;-1.118;2024-03-02T01:16:14;3.78;;;3.67;;
70667;SDS011;58242;51.250;-1.118;2024-03-02T01:18:40;4.28;;;4.07;;
70667;SDS011;58242;51.250;-1.118;2024-03-02T01:21:06;3.88;;;3.67;;
70667;SDS011;58242;51.250;-1.118;2024-03-02T01:23:32;3.90;;;3.80;;
70667;SDS011;58242;51.250;-1.118;2024-03-02T01:25:57;3.80;;;3.70;;
70667;SDS011;58242;51.250;-1.118;2024-03-02T01:28:22;3.85;;;3.65;;
70667;SDS011;58242;51.250;-1.118;2024-03-02T01:30:48;3.80;;;3.70;;
70667;SDS011;58242;51.250;-1.118;2024-03-02T01:33:14;3.80;;;3.65;;
70667;SDS011;58242;51.250;-1.118;2024-03-02T01:35:40;3.88;;;3.60;;
70667;SDS011;58242;51.250;-1.118;2024-03-02T01:38:05;3.83;;;3.63;;
70667;SDS011;58242;51.250;-1.118;2024-03-02T01:40:32;3.97;;;3.88;;
70667;SDS011;58242;51.250;-1.118;2024-03-02T01:42:58;3.78;;;3.67;;
70667;SDS011;58242;51.250;-1.118;2024-03-02T01:45:24;3.72;;;3.63;;
70667;SDS011;58242;51.250;-1.118;2024-03-02T01:47:49;3.75;;;3.65;;
70667;SDS011;58242;51.250;-1.118;2024-03-02T01:50:15;3.60;;;3.50;;
70667;SDS011;58242;51.250;-1.118;2024-03-02T01:52:49;3.72;;;3.60;;
70667;SDS011;58242;51.250;-1.118;2024-03-02T01:55:15;3.70;;;3.60;;
70667;SDS011;58242;51.250;-1.118;2024-03-02T01:57:40;3.50;;;3.40;;
70667;SDS011;58242;51.250;-1.118;2024-03-02T02:00:05;3.95;;;3.75;;
70667;SDS011;58242;51.250;-1.118;2024-03-02T02:02:31;3.67;;;3.58;;
70667;SDS011;58242;51.250;-1.118;2024-03-02T02:04:57;3.50;;;3.40;;
70667;SDS011;58242;51.250;-1.118;2024-03-02T02:07:22;3.67;;;3.47;;
70667;SDS011;58242;51.250;-1.118;2024-03-02T02:09:47;3.70;;;3.50;;
70667;SDS011;58242;51.250;-1.118;2024-03-02T02:12:13;3.80;;;3.70;;
70667;SDS011;58242;51.250;-1.118;2024-03-02T02:14:38;3.90;;;3.80;;
70667;SDS011;58242;51.250;-1.118;2024-03-02T02:17:05;3.70;;;3.60;;
70667;SDS011;58242;51.250;-1.118;2024-03-02T02:19:30;3.67;;;3.58;;
70667;SDS011;58242;51.250;-1.118;2024-03-02T02:21:56;3.53;;;3.42;;
70667;SDS011;58242;51.250;-1.118;2024-03-02T02:24:21;3.40;;;3.30;;
70667;SDS011;58242;51.250;-1.118;2024-03-02T02:26:46;3.50;;;3.40;;
70667;SDS011;58242;51.250;-1.118;2024-03-02T02:29:11;3.30;;;3.20;;
70667;SDS011;58242;51.250;-1.118;2024-03-02T02:31:37;3.30;;;3.20;;
70667;SDS011;58242;51.250;-1.118;2024-03-02T02:34:03;3.47;;;3.38;;
70667;SDS011;58242;51.250;-1.118;2024-03-02T02:36:29;3.83;;;3.63;;
70667;SDS011;58242;51.250;-1.118;2024-03-02T02:38:55;3.35;;;3.25;;
70667;SDS011;58242;51.250;-1.118;2024-03-02T02:41:20;3.22;;;3.13;;
70667;SDS011;58242;51.250;-1.118;2024-03-02T02:43:45;3.22;;;3.13;;
70667;SDS011;58242;51.250;-1.118;2024-03-02T02:46:11;3.35;;;3.25;;
70667;SDS011;58242;51.250;-1.118;2024-03-02T02:48:36;3.30;;;3.20;;
70667;SDS011;58242;51.250;-1.118;2024-03-02T02:51:01;3.25;;;3.15;;
70667;SDS011;58242;51.250;-1.118;2024-03-02T02:53:27;3.40;;;3.20;;
70667;SDS011;58242;51.250;-1.118;2024-03-02T02:55:52;3.33;;;3.22;;
70667;SDS011;58242;51.250;-1.118;2024-03-02T02:58:17;3.35;;;3.25;;
70667;SDS011;58242;51.250;-1.118;2024-03-02T03:00:43;3.10;;;3.00;;
70667;SDS011;58242;51.250;-1.118;2024-03-02T03:03:08;3.53;;;3.33;;
70667;SDS011;58242;51.250;-1.118;2024-03-02T03:05:33;3.70;;;3.50;;
70667;SDS011;58242;51.250;-1.118;2024-03-02T03:07:59;3.33;;;3.10;;
70667;SDS011;58242;51.250;-1.118;2024-03-02T03:10:24;3.20;;;3.10;;
70667;SDS011;58242;51.250;-1.118;2024-03-02T03:12:51;3.65;;;3.45;;
70667;SDS011;58242;51.250;-1.118;2024-03-02T03:15:17;3.20;;;3.03;;
70667;SDS011;58242;51.250;-1.118;2024-03-02T03:17:42;3.67;;;3.53;;
70667;SDS011;58242;51.250;-1.118;2024-03-02T03:20:08;3.97;;;3.65;;
70667;SDS011;58242;51.250;-1.118;2024-03-02T03:22:37;5.47;;;4.03;;
70667;SDS011;58242;51.250;-1.118;2024-03-02T03:25:03;3.88;;;3.65;;
70667;SDS011;58242;51.250;-1.118;2024-03-02T03:27:29;4.88;;;3.70;;
70667;SDS011;58242;51.250;-1.118;2024-03-02T03:29:54;3.70;;;3.33;;
70667;SDS011;58242;51.250;-1.118;2024-03-02T03:32:20;4.07;;;3.67;;
70667;SDS011;58242;51.250;-1.118;2024-03-02T03:34:45;3.80;;;3.50;;
70667;SDS011;58242;51.250;-1.118;2024-03-02T03:37:10;4.40;;;4.00;;
70667;SDS011;58242;51.250;-1.118;2024-03-02T03:39:36;4.82;;;4.43;;
70667;SDS011;58242;51.250;-1.118;2024-03-02T03:42:01;4.13;;;3.83;;
70667;SDS011;58242;51.250;-1.118;2024-03-02T03:44:26;9.70;;;4.70;;
70667;SDS011;58242;51.250;-1.118;2024-03-02T03:46:52;5.90;;;4.53;;
70667;SDS011;58242;51.250;-1.118;2024-03-02T03:49:17;6.90;;;4.50;;
70667;SDS011;58242;51.250;-1.118;2024-03-02T03:51:43;6.57;;;4.43;;
70667;SDS011;58242;51.250;-1.118;2024-03-02T03:54:08;9.15;;;4.53;;
70667;SDS011;58242;51.250;-1.118;2024-03-02T03:56:36;7.78;;;4.10;;
70667;SDS011;58242;51.250;-1.118;2024-03-02T03:59:01;9.65;;;4.47;;
70667;SDS011;58242;51.250;-1.118;2024-03-02T04:01:27;7.75;;;4.50;;
70667;SDS011;58242;51.250;-1.118;2024-03-02T04:03:52;9.85;;;4.88;;
70667;SDS011;58242;51.250;-1.118;2024-03-02T04:06:17;12.15;;;4.82;;
70667;SDS011;58242;51.250;-1.118;2024-03-02T04:08:43;10.00;;;4.65;;
70667;SDS011;58242;51.250;-1.118;2024-03-02T04:11:08;8.45;;;4.50;;
70667;SDS011;58242;51.250;-1.118;2024-03-02T04:13:34;4.50;;;4.10;;
70667;SDS011;58242;51.250;-1.118;2024-03-02T04:15:59;6.13;;;4.40;;
70667;SDS011;58242;51.250;-1.118;2024-03-02T04:18:24;6.45;;;4.70;;
70667;SDS011;58242;51.250;-1.118;2024-03-02T04:20:50;6.03;;;4.00;;
70667;SDS011;58242;51.250;-1.118;2024-03-02T04:23:15;5.65;;;3.95;;
70667;SDS011;58242;51.250;-1.118;2024-03-02T04:25:40;7.85;;;4.35;;
70667;SDS011;58242;51.250;-1.118;2024-03-02T04:28:06;12.90;;;5.00;;
70667;SDS011;58242;51.250;-1.118;2024-03-02T04:30:31;9.15;;;4.68;;
70667;SDS011;58242;51.250;-1.118;2024-03-02T04:32:56;9.27;;;4.72;;
70667;SDS011;58242;51.250;-1.118;2024-03-02T04:35:22;7.13;;;4.40;;
70667;SDS011;58242;51.250;-1.118;2024-03-02T04:37:47;4.70;;;4.20;;
70667;SDS011;58242;51.250;-1.118;2024-03-02T04:40:12;9.27;;;5.30;;
70667;SDS011;58242;51.250;-1.118;2024-03-02T04:42:38;5.05;;;4.13;;
70667;SDS011;58242;51.250;-1.118;2024-03-02T04:45:03;8.38;;;4.97;;
70667;SDS011;58242;51.250;-1.118;2024-03-02T04:47:29;5.50;;;5.00;;
70667;SDS011;58242;51.250;-1.118;2024-03-02T04:49:54;4.93;;;4.53;;
70667;SDS011;58242;51.250;-1.118;2024-03-02T04:52:20;10.18;;;5.22;;
70667;SDS011;58242;51.250;-1.118;2024-03-02T04:54:45;9.27;;;5.15;;
70667;SDS011;58242;51.250;-1.118;2024-03-02T04:57:29;9.25;;;4.45;;
70667;SDS011;58242;51.250;-1.118;2024-03-02T04:59:54;5.10;;;4.43;;
70667;SDS011;58242;51.250;-1.118;2024-03-02T05:02:20;9.40;;;5.60;;
70667;SDS011;58242;51.250;-1.118;2024-03-02T05:04:45;7.00;;;4.88;;
70667;SDS011;58242;51.250;-1.118;2024-03-02T05:07:10;4.80;;;4.40;;
70667;SDS011;58242;51.250;-1.118;2024-03-02T05:09:36;5.53;;;4.32;;
70667;SDS011;58242;51.250;-1.118;2024-03-02T05:12:02;4.80;;;4.40;;
70667;SDS011;58242;51.250;-1.118;2024-03-02T05:15:03;4.40;;;4.20;;
70667;SDS011;58242;51.250;-1.118;2024-03-02T05:17:29;4.10;;;3.90;;
70667;SDS011;58242;51.250;-1.118;2024-03-02T05:19:54;4.00;;;3.63;;
70667;SDS011;58242;51.250;-1.118;2024-03-02T05:22:20;3.92;;;3.72;;
70667;SDS011;58242;51.250;-1.118;2024-03-02T05:24:45;4.20;;;4.00;;
70667;SDS011;58242;51.250;-1.118;2024-03-02T05:27:10;6.63;;;4.45;;
70667;SDS011;58242;51.250;-1.118;2024-03-02T05:29:36;4.20;;;4.00;;
70667;SDS011;58242;51.250;-1.118;2024-03-02T05:32:01;4.20;;;3.88;;
70667;SDS011;58242;51.250;-1.118;2024-03-02T05:34:27;4.05;;;3.75;;
70667;SDS011;58242;51.250;-1.118;2024-03-02T05:36:52;4.03;;;3.72;;
70667;SDS011;58242;51.250;-1.118;2024-03-02T05:39:18;4.20;;;4.00;;
70667;SDS011;58242;51.250;-1.118;2024-03-02T05:41:43;4.80;;;4.28;;
70667;SDS011;58242;51.250;-1.118;2024-03-02T05:44:09;5.60;;;3.92;;
70667;SDS011;58242;51.250;-1.118;2024-03-02T05:46:34;3.90;;;3.65;;
70667;SDS011;58242;51.250;-1.118;2024-03-02T05:49:00;3.90;;;3.70;;
70667;SDS011;58242;51.250;-1.118;2024-03-02T05:51:26;3.60;;;3.40;;
70667;SDS011;58242;51.250;-1.118;2024-03-02T05:53:51;3.70;;;3.50;;
70667;SDS011;58242;51.250;-1.118;2024-03-02T05:56:16;3.97;;;3.75;;
70667;SDS011;58242;51.250;-1.118;2024-03-02T05:58:42;4.10;;;3.80;;
70667;SDS011;58242;51.250;-1.118;2024-03-02T06:01:26;3.80;;;3.60;;
70667;SDS011;58242;51.250;-1.118;2024-03-02T06:03:56;3.65;;;3.40;;
70667;SDS011;58242;51.250;-1.118;2024-03-02T06:06:22;3.67;;;3.47;;
70667;SDS011;58242;51.250;-1.118;2024-03-02T06:08:48;4.50;;;4.13;;
70667;SDS011;58242;51.250;-1.118;2024-03-02T06:11:13;5.10;;;3.75;;
70667;SDS011;58242;51.250;-1.118;2024-03-02T06:13:39;4.20;;;4.00;;
70667;SDS011;58242;51.250;-1.118;2024-03-02T06:16:04;4.00;;;3.70;;
70667;SDS011;58242;51.250;-1.118;2024-03-02T06:18:30;3.50;;;3.30;;
70667;SDS011;58242;51.250;-1.118;2024-03-02T06:20:55;3.50;;;3.40;;
70667;SDS011;58242;51.250;-1.118;2024-03-02T06:23:20;3.45;;;3.25;;
70667;SDS011;58242;51.250;-1.118;2024-03-02T06:25:46;4.07;;;3.78;;
70667;SDS011;58242;51.250;-1.118;2024-03-02T06:28:11;3.47;;;3.28;;
70667;SDS011;58242;51.250;-1.118;2024-03-02T06:30:36;4.40;;;3.97;;
70667;SDS011;58242;51.250;-1.118;2024-03-02T06:33:02;3.70;;;3.50;;
70667;SDS011;58242;51.250;-1.118;2024-03-02T06:35:28;3.33;;;3.20;;
70667;SDS011;58242;51.250;-1.118;2024-03-02T06:37:54;3.72;;;3.42;;
70667;SDS011;58242;51.250;-1.118;2024-03-02T06:40:19;3.42;;;3.30;;
70667;SDS011;58242;51.250;-1.118;2024-03-02T06:42:46;3.47;;;3.28;;
70667;SDS011;58242;51.250;-1.118;2024-03-02T06:45:11;3.67;;;3.50;;
70667;SDS011;58242;51.250;-1.118;2024-03-02T06:47:37;3.72;;;3.53;;
70667;SDS011;58242;51.250;-1.118;2024-03-02T06:50:02;3.38;;;2.95;;
70667;SDS011;58242;51.250;-1.118;2024-03-02T06:52:27;3.38;;;3.20;;
70667;SDS011;58242;51.250;-1.118;2024-03-02T06:54:53;3.20;;;3.10;;
70667;SDS011;58242;51.250;-1.118;2024-03-02T06:57:18;4.55;;;4.07;;
70667;SDS011;58242;51.250;-1.118;2024-03-02T06:59:45;3.58;;;3.38;;
70667;SDS011;58242;51.250;-1.118;2024-03-02T07:02:11;3.40;;;3.30;;
70667;SDS011;58242;51.250;-1.118;2024-03-02T07:04:37;3.20;;;3.10;;
70667;SDS011;58242;51.250;-1.118;2024-03-02T07:07:02;2.95;;;2.85;;
70667;SDS011;58242;51.250;-1.118;2024-03-02T07:09:28;3.30;;;3.20;;
70667;SDS011;58242;51.250;-1.118;2024-03-02T07:11:53;4.10;;;3.90;;
70667;SDS011;58242;51.250;-1.118;2024-03-02T07:14:18;3.72;;;3.63;;
70667;SDS011;58242;51.250;-1.118;2024-03-02T07:16:44;4.18;;;4.07;;
70667;SDS011;58242;51.250;-1.118;2024-03-02T07:19:09;3.13;;;3.00;;
70667;SDS011;58242;51.250;-1.118;2024-03-02T07:21:35;3.35;;;3.20;;
70667;SDS011;58242;51.250;-1.118;2024-03-02T07:24:00;3.92;;;3.63;;
70667;SDS011;58242;51.250;-1.118;2024-03-02T07:26:28;3.80;;;3.50;;
70667;SDS011;58242;51.250;-1.118;2024-03-02T07:28:55;3.33;;;3.17;;
70667;SDS011;58242;51.250;-1.118;2024-03-02T07:31:20;3.88;;;3.67;;
70667;SDS011;58242;51.250;-1.118;2024-03-02T07:33:45;3.53;;;3.42;;
70667;SDS011;58242;51.250;-1.118;2024-03-02T07:36:11;3.40;;;3.30;;
70667;SDS011;58242;51.250;-1.118;2024-03-02T07:38:37;4.18;;;3.97;;
70667;SDS011;58242;51.250;-1.118;2024-03-02T07:41:03;3.00;;;2.90;;
70667;SDS011;58242;51.250;-1.118;2024-03-02T07:43:29;3.20;;;3.10;;
70667;SDS011;58242;51.250;-1.118;2024-03-02T07:45:55;3.00;;;2.90;;
70667;SDS011;58242;51.250;-1.118;2024-03-02T07:48:21;3.35;;;3.25;;
70667;SDS011;58242;51.250;-1.118;2024-03-02T07:50:46;3.60;;;3.30;;
70667;SDS011;58242;51.250;-1.118;2024-03-02T07:53:11;3.58;;;3.38;;
70667;SDS011;58242;51.250;-1.118;2024-03-02T07:55:37;3.20;;;3.10;;
70667;SDS011;58242;51.250;-1.118;2024-03-02T07:58:02;3.00;;;2.90;;
70667;SDS011;58242;51.250;-1.118;2024-03-02T08:00:28;2.92;;;2.83;;
70667;SDS011;58242;51.250;-1.118;2024-03-02T08:02:53;3.83;;;3.58;;
70667;SDS011;58242;51.250;-1.118;2024-03-02T08:05:19;3.40;;;3.30;;
70667;SDS011;58242;51.250;-1.118;2024-03-02T08:07:45;3.00;;;2.90;;
70667;SDS011;58242;51.250;-1.118;2024-03-02T08:10:11;3.25;;;3.15;;
70667;SDS011;58242;51.250;-1.118;2024-03-02T08:12:37;3.42;;;3.33;;
70667;SDS011;58242;51.250;-1.118;2024-03-02T08:15:02;3.72;;;3.63;;
70667;SDS011;58242;51.250;-1.118;2024-03-02T08:17:29;3.47;;;3.38;;
70667;SDS011;58242;51.250;-1.118;2024-03-02T08:19:54;3.47;;;3.28;;
70667;SDS011;58242;51.250;-1.118;2024-03-02T08:22:20;3.58;;;3.47;;
70667;SDS011;58242;51.250;-1.118;2024-03-02T08:24:45;2.67;;;2.63;;
70667;SDS011;58242;51.250;-1.118;2024-03-02T08:27:11;3.28;;;3.17;;
70667;SDS011;58242;51.250;-1.118;2024-03-02T08:29:37;3.58;;;3.45;;
70667;SDS011;58242;51.250;-1.118;2024-03-02T08:32:02;2.80;;;2.70;;
70667;SDS011;58242;51.250;-1.118;2024-03-02T08:34:28;3.50;;;3.40;;
70667;SDS011;58242;51.250;-1.118;2024-03-02T08:36:53;3.15;;;3.05;;
70667;SDS011;58242;51.250;-1.118;2024-03-02T08:39:18;3.90;;;3.80;;
70667;SDS011;58242;51.250;-1.118;2024-03-02T08:41:45;3.17;;;3.08;;
70667;SDS011;58242;51.250;-1.118;2024-03-02T08:44:11;3.08;;;2.97;;
70667;SDS011;58242;51.250;-1.118;2024-03-02T08:46:38;3.03;;;2.92;;
70667;SDS011;58242;51.250;-1.118;2024-03-02T08:49:04;2.60;;;2.50;;
70667;SDS011;58242;51.250;-1.118;2024-03-02T08:51:29;2.78;;;2.67;;
70667;SDS011;58242;51.250;-1.118;2024-03-02T08:53:55;2.90;;;2.80;;
70667;SDS011;58242;51.250;-1.118;2024-03-02T08:56:20;3.10;;;3.00;;
70667;SDS011;58242;51.250;-1.118;2024-03-02T08:58:46;2.70;;;2.60;;
70667;SDS011;58242;51.250;-1.118;2024-03-02T09:01:12;2.90;;;2.80;;
70667;SDS011;58242;51.250;-1.118;2024-03-02T09:03:37;3.30;;;3.20;;
70667;SDS011;58242;51.250;-1.118;2024-03-02T09:06:03;3.30;;;3.20;;
70667;SDS011;58242;51.250;-1.118;2024-03-02T09:08:28;3.40;;;3.20;;
70667;SDS011;58242;51.250;-1.118;2024-03-02T09:10:54;2.70;;;2.60;;
70667;SDS011;58242;51.250;-1.118;2024-03-02T09:13:20;3.30;;;3.20;;
70667;SDS011;58242;51.250;-1.118;2024-03-02T09:15:46;2.90;;;2.80;;
70667;SDS011;58242;51.250;-1.118;2024-03-02T09:18:11;2.80;;;2.70;;
70667;SDS011;58242;51.250;-1.118;2024-03-02T09:20:37;2.60;;;2.50;;
70667;SDS011;58242;51.250;-1.118;2024-03-02T09:23:02;2.60;;;2.60;;
70667;SDS011;58242;51.250;-1.118;2024-03-02T09:25:27;2.45;;;2.45;;
70667;SDS011;58242;51.250;-1.118;2024-03-02T09:27:53;2.92;;;2.83;;
70667;SDS011;58242;51.250;-1.118;2024-03-02T09:30:18;2.50;;;2.50;;
70667;SDS011;58242;51.250;-1.118;2024-03-02T09:32:43;2.65;;;2.65;;
70667;SDS011;58242;51.250;-1.118;2024-03-02T09:35:09;2.83;;;2.72;;
70667;SDS011;58242;51.250;-1.118;2024-03-02T09:37:34;3.00;;;2.80;;
70667;SDS011;58242;51.250;-1.118;2024-03-02T09:40:00;2.88;;;2.78;;
70667;SDS011;58242;51.250;-1.118;2024-03-02T09:42:26;2.70;;;2.60;;
70667;SDS011;58242;51.250;-1.118;2024-03-02T09:44:52;2.33;;;2.30;;
70667;SDS011;58242;51.250;-1.118;2024-03-02T09:47:17;2.72;;;2.63;;
70667;SDS011;58242;51.250;-1.118;2024-03-02T09:49:43;2.17;;;2.17;;
70667;SDS011;58242;51.250;-1.118;2024-03-02T09:52:08;2.28;;;2.28;;
70667;SDS011;58242;51.250;-1.118;2024-03-02T09:54:35;2.88;;;2.78;;
70667;SDS011;58242;51.250;-1.118;2024-03-02T09:57:01;3.15;;;3.05;;
70667;SDS011;58242;51.250;-1.118;2024-03-02T09:59:27;2.50;;;2.40;;
70667;SDS011;58242;51.250;-1.118;2024-03-02T10:02:00;2.40;;;2.40;;
70667;SDS011;58242;51.250;-1.118;2024-03-02T10:04:27;3.67;;;3.58;;
70667;SDS011;58242;51.250;-1.118;2024-03-02T10:09:41;3.15;;;3.05;;
70667;SDS011;58242;51.250;-1.118;2024-03-02T10:12:08;3.20;;;3.10;;
70667;SDS011;58242;51.250;-1.118;2024-03-02T10:14:36;3.50;;;3.40;;
70667;SDS011;58242;51.250;-1.118;2024-03-02T10:17:02;2.80;;;2.70;;
70667;SDS011;58242;51.250;-1.118;2024-03-02T10:19:29;2.58;;;2.47;;
70667;SDS011;58242;51.250;-1.118;2024-03-02T10:21:58;3.20;;;3.10;;
70667;SDS011;58242;51.250;-1.118;2024-03-02T10:24:24;2.60;;;2.50;;
70667;SDS011;58242;51.250;-1.118;2024-03-02T10:26:50;2.20;;;2.20;;
70667;SDS011;58242;51.250;-1.118;2024-03-02T10:29:16;2.45;;;2.45;;
70667;SDS011;58242;51.250;-1.118;2024-03-02T10:31:45;2.30;;;2.20;;
70667;SDS011;58242;51.250;-1.118;2024-03-02T10:34:11;2.10;;;2.00;;
70667;SDS011;58242;51.250;-1.118;2024-03-02T10:36:40;2.40;;;2.30;;
70667;SDS011;58242;51.250;-1.118;2024-03-02T10:39:07;2.78;;;2.67;;
70667;SDS011;58242;51.250;-1.118;2024-03-02T10:41:33;2.03;;;2.03;;
70667;SDS011;58242;51.250;-1.118;2024-03-02T10:44:01;1.90;;;1.90;;
70667;SDS011;58242;51.250;-1.118;2024-03-02T10:46:28;1.80;;;1.80;;
70667;SDS011;58242;51.250;-1.118;2024-03-02T10:48:55;2.40;;;2.30;;
70667;SDS011;58242;51.250;-1.118;2024-03-02T10:51:23;2.88;;;2.78;;
70667;SDS011;58242;51.250;-1.118;2024-03-02T10:53:49;1.98;;;1.98;;
70667;SDS011;58242;51.250;-1.118;2024-03-02T10:56:16;1.92;;;1.90;;
70667;SDS011;58242;51.250;-1.118;2024-03-02T10:58:50;2.42;;;2.30;;
70667;SDS011;58242;51.250;-1.118;2024-03-02T11:01:18;1.83;;;1.83;;
70667;SDS011;58242;51.250;-1.118;2024-03-02T11:03:45;2.00;;;2.00;;
70667;SDS011;58242;51.250;-1.118;2024-03-02T11:06:11;2.60;;;2.50;;
70667;SDS011;58242;51.250;-1.118;2024-03-02T11:08:38;2.42;;;2.33;;
70667;SDS011;58242;51.250;-1.118;2024-03-02T11:11:11;1.80;;;1.80;;
70667;SDS011;58242;51.250;-1.118;2024-03-02T11:13:40;1.70;;;1.70;;
70667;SDS011;58242;51.250;-1.118;2024-03-02T11:16:31;1.88;;;1.80;;
70667;SDS011;58242;51.250;-1.118;2024-03-02T11:19:02;2.30;;;2.30;;
70667;SDS011;58242;51.250;-1.118;2024-03-02T11:23:54;2.17;;;2.08;;
70667;SDS011;58242;51.250;-1.118;2024-03-02T11:26:20;1.90;;;1.90;;
70667;SDS011;58242;51.250;-1.118;2024-03-02T11:28:47;2.25;;;2.13;;
70667;SDS011;58242;51.250;-1.118;2024-03-02T11:31:12;1.90;;;1.80;;
70667;SDS011;58242;51.250;-1.118;2024-03-02T11:33:38;1.70;;;1.70;;
70667;SDS011;58242;51.250;-1.118;2024-03-02T11:36:03;2.08;;;1.90;;
70667;SDS011;58242;51.250;-1.118;2024-03-02T11:38:32;1.95;;;1.90;;
70667;SDS011;58242;51.250;-1.118;2024-03-02T11:41:06;2.10;;;2.00;;
70667;SDS011;58242;51.250;-1.118;2024-03-02T11:43:34;2.10;;;2.00;;
70667;SDS011;58242;51.250;-1.118;2024-03-02T11:46:04;1.80;;;1.70;;
70667;SDS011;58242;51.250;-1.118;2024-03-02T11:48:34;1.83;;;1.77;;
70667;SDS011;58242;51.250;-1.118;2024-03-02T11:51:01;1.80;;;1.80;;
70667;SDS011;58242;51.250;-1.118;2024-03-02T11:53:27;2.22;;;2.13;;
70667;SDS011;58242;51.250;-1.118;2024-03-02T11:55:57;2.30;;;2.20;;
70667;SDS011;58242;51.250;-1.118;2024-03-02T11:58:23;2.63;;;2.53;;
70667;SDS011;58242;51.250;-1.118;2024-03-02T12:00:53;2.28;;;2.17;;
70667;SDS011;58242;51.250;-1.118;2024-03-02T12:03:20;3.00;;;2.90;;
70667;SDS011;58242;51.250;-1.118;2024-03-02T12:05:49;2.38;;;2.28;;
70667;SDS011;58242;51.250;-1.118;2024-03-02T12:08:15;2.70;;;2.60;;
70667;SDS011;58242;51.250;-1.118;2024-03-02T12:10:41;2.75;;;2.65;;
70667;SDS011;58242;51.250;-1.118;2024-03-02T12:13:07;2.10;;;2.10;;
70667;SDS011;58242;51.250;-1.118;2024-03-02T12:15:33;2.50;;;2.40;;
70667;SDS011;58242;51.250;-1.118;2024-03-02T12:18:00;2.00;;;2.00;;
70667;SDS011;58242;51.250;-1.118;2024-03-02T12:20:30;2.80;;;2.70;;
70667;SDS011;58242;51.250;-1.118;2024-03-02T12:23:00;2.70;;;2.60;;
70667;SDS011;58242;51.250;-1.118;2024-03-02T12:25:27;2.33;;;2.22;;
70667;SDS011;58242;51.250;-1.118;2024-03-02T12:27:56;2.30;;;2.20;;
70667;SDS011;58242;51.250;-1.118;2024-03-02T12:30:23;1.80;;;1.70;;
70667;SDS011;58242;51.250;-1.118;2024-03-02T12:32:49;1.70;;;1.70;;
70667;SDS011;58242;51.250;-1.118;2024-03-02T12:35:14;1.70;;;1.70;;
70667;SDS011;58242;51.250;-1.118;2024-03-02T12:40:10;2.72;;;2.63;;
70667;SDS011;58242;51.250;-1.118;2024-03-02T12:42:36;2.40;;;2.40;;
70667;SDS011;58242;51.250;-1.118;2024-03-02T12:45:02;2.33;;;2.22;;
70667;SDS011;58242;51.250;-1.118;2024-03-02T12:47:28;2.20;;;2.20;;
70667;SDS011;58242;51.250;-1.118;2024-03-02T12:49:54;2.50;;;2.40;;
70667;SDS011;58242;51.250;-1.118;2024-03-02T12:52:21;2.63;;;2.53;;
70667;SDS011;58242;51.250;-1.118;2024-03-02T12:54:46;2.60;;;2.50;;
70667;SDS011;58242;51.250;-1.118;2024-03-02T12:57:16;2.42;;;2.33;;
70667;SDS011;58242;51.250;-1.118;2024-03-02T12:59:45;2.50;;;2.40;;
70667;SDS011;58242;51.250;-1.118;2024-03-02T13:02:16;2.20;;;2.20;;
70667;SDS011;58242;51.250;-1.118;2024-03-02T13:04:42;2.30;;;2.30;;
70667;SDS011;58242;51.250;-1.118;2024-03-02T13:07:07;2.45;;;2.40;;
70667;SDS011;58242;51.250;-1.118;2024-03-02T13:09:33;2.15;;;2.15;;
70667;SDS011;58242;51.250;-1.118;2024-03-02T13:11:59;2.10;;;2.10;;
70667;SDS011;58242;51.250;-1.118;2024-03-02T13:14:25;2.30;;;2.20;;
70667;SDS011;58242;51.250;-1.118;2024-03-02T13:16:51;1.90;;;1.90;;
70667;SDS011;58242;51.250;-1.118;2024-03-02T13:19:17;2.55;;;2.45;;
70667;SDS011;58242;51.250;-1.118;2024-03-02T13:21:46;2.25;;;2.20;;
70667;SDS011;58242;51.250;-1.118;2024-03-02T13:24:11;2.50;;;2.40;;
70667;SDS011;58242;51.250;-1.118;2024-03-02T13:26:36;2.80;;;2.70;;
70667;SDS011;58242;51.250;-1.118;2024-03-02T13:29:02;2.58;;;2.47;;
70667;SDS011;58242;51.250;-1.118;2024-03-02T13:31:27;2.60;;;2.50;;
70667;SDS011;58242;51.250;-1.118;2024-03-02T13:33:53;2.80;;;2.60;;
70667;SDS011;58242;51.250;-1.118;2024-03-02T13:36:18;2.45;;;2.35;;
70667;SDS011;58242;51.250;-1.118;2024-03-02T13:38:44;2.60;;;2.50;;
70667;SDS011;58242;51.250;-1.118;2024-03-02T13:41:09;2.40;;;2.30;;
70667;SDS011;58242;51.250;-1.118;2024-03-02T13:43:36;2.88;;;2.72;;
70667;SDS011;58242;51.250;-1.118;2024-03-02T13:46:03;2.70;;;2.60;;
70667;SDS011;58242;51.250;-1.118;2024-03-02T13:48:29;2.65;;;2.47;;
70667;SDS011;58242;51.250;-1.118;2024-03-02T13:50:55;2.72;;;2.63;;
70667;SDS011;58242;51.250;-1.118;2024-03-02T13:53:20;2.65;;;2.55;;
70667;SDS011;58242;51.250;-1.118;2024-03-02T13:55:46;2.70;;;2.60;;
70667;SDS011;58242;51.250;-1.118;2024-03-02T13:58:11;2.30;;;2.20;;
70667;SDS011;58242;51.250;-1.118;2024-03-02T14:00:37;2.15;;;2.05;;
70667;SDS011;58242;51.250;-1.118;2024-03-02T14:03:04;2.65;;;2.55;;
70667;SDS011;58242;51.250;-1.118;2024-03-02T14:05:31;3.00;;;2.90;;
70667;SDS011;58242;51.250;-1.118;2024-03-02T14:07:57;2.75;;;2.55;;
70667;SDS011;58242;51.250;-1.118;2024-03-02T14:10:23;3.00;;;2.80;;
70667;SDS011;58242;51.250;-1.118;2024-03-02T14:12:49;2.30;;;2.25;;
70667;SDS011;58242;51.250;-1.118;2024-03-02T14:15:14;2.60;;;2.50;;
70667;SDS011;58242;51.250;-1.118;2024-03-02T14:17:40;2.97;;;2.88;;
70667;SDS011;58242;51.250;-1.118;2024-03-02T14:20:05;2.90;;;2.70;;
70667;SDS011;58242;51.250;-1.118;2024-03-02T14:22:31;2.80;;;2.70;;
70667;SDS011;58242;51.250;-1.118;2024-03-02T14:24:58;2.80;;;2.70;;
70667;SDS011;58242;51.250;-1.118;2024-03-02T14:27:24;2.70;;;2.60;;
70667;SDS011;58242;51.250;-1.118;2024-03-02T14:29:50;3.17;;;2.92;;
70667;SDS011;58242;51.250;-1.118;2024-03-02T14:32:16;3.10;;;3.00;;
70667;SDS011;58242;51.250;-1.118;2024-03-02T14:34:41;2.95;;;2.85;;